SE-0005 weather

Åre / Molanda
Jämtlande län, Sweden

Public forecast

Using degrees Celsius for public forecast. Weather courtesy of forecast.io.

METAR (pilot weather report)

Closest report is Åre Östersund Airport, 30.1 nm (55.8 km) ESE. Retrieved 2019/09/19 01:20 UTC (22 minutes ago):

ESNZ 190120Z AUTO 31013KT 9999 FEW017/// SCT029/// 05/02 Q1018

TAF (pilot weather forecast)

Forecast is more than 12 hours old.

Closest forecast is Trondheim Airport Værnes, 67.7 nm (125.4 km) W. Retrieved 2019/09/18 00:59 UTC (1 day ago):

TAF ENVA 182300Z 1900/1924 26012KT 9999 -SHRA FEW020TCU BKN035 TEMPO 1900/1917 4000 SHRA BKN014CB BECMG 1916/1918 VRB05KT